createdAt,value
2019-02-27T00:02:02.469Z,53.60
2019-02-27T00:04:35.549Z,53.50
2019-02-27T00:07:05.404Z,53.40
2019-02-27T00:09:36.578Z,53.30
2019-02-27T00:12:07.096Z,53.30
2019-02-27T00:14:38.190Z,53.40
2019-02-27T00:17:08.855Z,53.50
2019-02-27T00:19:39.703Z,53.30
2019-02-27T00:22:10.542Z,53.30
2019-02-27T00:24:41.367Z,53.40
2019-02-27T00:27:14.630Z,53.40
2019-02-27T00:29:44.883Z,53.30
2019-02-27T00:32:18.250Z,53.50
2019-02-27T00:34:50.805Z,53.40
2019-02-27T00:37:21.318Z,53.70
2019-02-27T00:39:51.966Z,53.70
2019-02-27T00:42:23.075Z,53.70
2019-02-27T00:44:53.874Z,53.70
2019-02-27T00:47:24.440Z,54.00
2019-02-27T00:49:55.363Z,53.80
2019-02-27T00:52:26.051Z,53.80
2019-02-27T00:54:56.769Z,53.90
2019-02-27T00:57:27.394Z,53.90
2019-02-27T00:59:58.618Z,54.30
2019-02-27T01:02:29.554Z,54.00
2019-02-27T01:05:00.824Z,54.00
2019-02-27T01:07:31.658Z,53.90
2019-02-27T01:10:02.518Z,54.00
2019-02-27T01:12:35.154Z,54.20
2019-02-27T01:15:07.998Z,54.20
2019-02-27T01:17:39.617Z,54.10
2019-02-27T01:20:11.510Z,54.20
2019-02-27T01:22:43.864Z,54.20
2019-02-27T01:25:14.912Z,54.10
2019-02-27T01:27:45.636Z,54.30
2019-02-27T01:30:16.558Z,54.40
2019-02-27T01:32:47.399Z,54.30
2019-02-27T01:35:19.000Z,54.50
2019-02-27T01:37:50.294Z,54.40
2019-02-27T01:40:21.170Z,54.30
2019-02-27T01:42:51.982Z,54.60
2019-02-27T01:45:22.398Z,54.60
2019-02-27T01:47:53.448Z,54.60
2019-02-27T01:50:36.572Z,54.60
2019-02-27T01:53:08.445Z,54.70
2019-02-27T01:55:39.194Z,54.90
2019-02-27T01:58:12.082Z,54.60
2019-02-27T02:00:42.870Z,54.80
2019-02-27T02:03:14.351Z,54.90
2019-02-27T02:05:45.302Z,54.80
2019-02-27T02:08:16.119Z,55.00
2019-02-27T02:10:46.739Z,55.30
2019-02-27T02:13:24.468Z,55.00
2019-02-27T02:16:41.195Z,55.40
2019-02-27T02:20:07.710Z,55.20
2019-02-27T02:23:07.904Z,55.20
2019-02-27T02:26:21.412Z,55.20
2019-02-27T02:29:35.830Z,55.70
2019-02-27T02:32:58.953Z,55.60
2019-02-27T02:36:37.740Z,55.50
2019-02-27T02:39:54.705Z,55.80
2019-02-27T02:43:11.764Z,56.00
2019-02-27T02:46:08.230Z,55.90
2019-02-27T02:49:34.272Z,56.10
2019-02-27T02:52:23.360Z,56.30
2019-02-27T02:55:22.980Z,56.40
2019-02-27T02:58:15.874Z,56.80
2019-02-27T03:01:15.225Z,56.70
2019-02-27T03:04:04.120Z,57.00
2019-02-27T03:07:14.317Z,57.00
2019-02-27T03:10:27.809Z,57.40
2019-02-27T03:13:24.863Z,57.30
2019-02-27T03:16:28.922Z,57.40
2019-02-27T03:19:46.439Z,57.30
2019-02-27T03:22:58.664Z,57.80
2019-02-27T03:26:03.366Z,57.80
2019-02-27T03:29:16.935Z,57.90
2019-02-27T03:31:59.961Z,58.00
2019-02-27T03:35:27.922Z,57.80
2019-02-27T03:38:24.091Z,58.10
2019-02-27T03:41:25.339Z,57.90
2019-02-27T03:44:25.963Z,58.30
2019-02-27T03:47:30.259Z,58.30
2019-02-27T03:50:41.328Z,58.40
2019-02-27T03:53:28.624Z,58.70
2019-02-27T03:56:49.058Z,58.90
2019-02-27T03:59:27.384Z,59.30
2019-02-27T04:02:47.865Z,58.90
2019-02-27T04:05:46.010Z,59.20
2019-02-27T04:08:51.289Z,59.20
2019-02-27T04:11:21.912Z,59.20
2019-02-27T04:13:52.466Z,59.60
2019-02-27T04:16:28.859Z,59.60
2019-02-27T04:19:02.961Z,59.70
2019-02-27T04:21:29.146Z,59.70
2019-02-27T04:23:59.989Z,59.60
2019-02-27T04:26:31.144Z,59.90
2019-02-27T04:29:08.339Z,59.80
2019-02-27T04:31:37.867Z,59.90
2019-02-27T04:34:08.561Z,60.00
2019-02-27T04:36:39.266Z,60.20
2019-02-27T04:39:10.026Z,60.40
2019-02-27T04:41:40.773Z,60.00
2019-02-27T04:44:11.562Z,60.20
2019-02-27T04:46:42.250Z,60.20
2019-02-27T04:49:13.283Z,60.80
2019-02-27T04:51:43.820Z,60.60
2019-02-27T04:54:14.651Z,60.70
2019-02-27T04:56:45.459Z,60.80
2019-02-27T04:59:18.594Z,60.80
2019-02-27T05:01:49.942Z,61.00
2019-02-27T05:04:20.859Z,61.10
2019-02-27T05:06:51.623Z,61.10
2019-02-27T05:09:22.523Z,61.10
2019-02-27T05:11:53.582Z,61.50
2019-02-27T05:14:24.916Z,61.40
2019-02-27T05:16:56.876Z,61.30
2019-02-27T05:19:27.682Z,61.40
2019-02-27T05:21:58.293Z,61.70
2019-02-27T05:24:29.069Z,61.70
2019-02-27T05:27:00.712Z,61.90
2019-02-27T05:29:32.211Z,61.80
2019-02-27T05:32:02.726Z,62.20
2019-02-27T05:34:33.202Z,62.30
2019-02-27T05:37:05.270Z,62.40
2019-02-27T05:39:36.887Z,62.50
2019-02-27T05:42:07.823Z,62.50
2019-02-27T05:44:40.371Z,62.80
2019-02-27T05:47:11.939Z,62.60
2019-02-27T05:49:42.933Z,62.90
2019-02-27T05:52:14.375Z,62.70
2019-02-27T05:54:45.611Z,62.80
2019-02-27T05:57:16.263Z,62.90
2019-02-27T05:59:48.090Z,62.90
2019-02-27T06:02:18.988Z,63.10
2019-02-27T06:04:49.654Z,63.30
2019-02-27T06:07:21.833Z,63.30
2019-02-27T06:09:52.505Z,64.40
2019-02-27T06:12:23.494Z,63.30
2019-02-27T06:14:55.017Z,63.30
2019-02-27T06:17:26.354Z,63.60
2019-02-27T06:19:56.887Z,63.60
2019-02-27T06:22:30.498Z,63.70
2019-02-27T06:25:00.219Z,63.70
2019-02-27T06:27:31.707Z,63.90
2019-02-27T06:30:02.460Z,64.10
2019-02-27T06:32:35.738Z,64.00
2019-02-27T06:35:06.926Z,64.20
2019-02-27T06:37:37.404Z,64.10
2019-02-27T06:40:08.993Z,64.00
2019-02-27T06:42:39.819Z,64.10
2019-02-27T06:45:12.707Z,63.80
2019-02-27T06:47:43.232Z,63.90
2019-02-27T06:50:15.232Z,63.90
2019-02-27T06:52:45.986Z,63.90
2019-02-27T06:55:16.700Z,64.40
2019-02-27T06:57:47.250Z,64.20
2019-02-27T07:00:20.549Z,64.30
2019-02-27T07:02:55.200Z,64.40
2019-02-27T07:05:24.286Z,64.40
2019-02-27T07:07:55.543Z,64.60
2019-02-27T07:10:26.101Z,64.60
2019-02-27T07:12:56.727Z,64.90
2019-02-27T07:15:27.555Z,65.00
2019-02-27T07:17:58.531Z,65.00
2019-02-27T07:20:29.129Z,64.90
2019-02-27T07:22:59.687Z,65.10
2019-02-27T07:25:30.388Z,65.60
2019-02-27T07:28:01.023Z,64.80
2019-02-27T07:30:31.679Z,65.00
2019-02-27T07:33:03.722Z,64.70
2019-02-27T07:35:35.349Z,64.70
2019-02-27T07:38:06.499Z,64.70
2019-02-27T07:40:37.645Z,64.80
2019-02-27T07:43:08.719Z,64.80
2019-02-27T07:45:39.675Z,65.10
2019-02-27T07:48:10.514Z,64.70
2019-02-27T07:50:41.218Z,64.70
2019-02-27T07:53:11.823Z,64.60
2019-02-27T07:55:42.724Z,64.50
2019-02-27T07:58:13.842Z,64.50
2019-02-27T08:00:47.124Z,64.70
2019-02-27T08:03:17.770Z,64.60
2019-02-27T08:05:48.605Z,64.50
2019-02-27T08:08:23.228Z,64.30
2019-02-27T08:10:52.913Z,64.40
2019-02-27T08:13:23.510Z,64.10
2019-02-27T08:15:54.129Z,63.60
2019-02-27T08:18:30.146Z,63.20
2019-02-27T08:20:57.116Z,63.20
2019-02-27T08:23:28.939Z,63.10
2019-02-27T08:26:04.737Z,63.10
2019-02-27T08:28:33.143Z,63.30
2019-02-27T08:31:03.903Z,63.90
2019-02-27T08:33:35.149Z,63.30
2019-02-27T08:36:05.829Z,63.50
2019-02-27T08:38:36.538Z,63.60
2019-02-27T08:41:07.178Z,63.70
2019-02-27T08:43:38.083Z,63.60
2019-02-27T08:46:08.896Z,63.50
2019-02-27T08:48:39.656Z,63.60
2019-02-27T08:51:10.980Z,63.40
2019-02-27T08:53:41.618Z,64.10
2019-02-27T08:56:12.936Z,63.30
2019-02-27T08:58:44.061Z,63.40
2019-02-27T09:01:14.591Z,63.30
2019-02-27T09:03:45.114Z,63.20
2019-02-27T09:06:18.545Z,63.10
2019-02-27T09:08:48.327Z,62.70
2019-02-27T09:11:19.407Z,62.50
2019-02-27T09:13:50.606Z,62.40
2019-02-27T09:16:23.014Z,62.10
2019-02-27T09:18:54.946Z,61.50
2019-02-27T09:21:27.927Z,61.20
2019-02-27T09:23:58.023Z,59.60
2019-02-27T09:26:29.467Z,59.10
2019-02-27T09:29:01.692Z,57.30
2019-02-27T09:31:34.691Z,54.70
2019-02-27T09:34:04.892Z,49.40
2019-02-27T09:36:36.044Z,43.10
2019-02-27T09:39:08.166Z,38.20
2019-02-27T09:41:39.268Z,33.90
2019-02-27T09:44:10.071Z,30.80
2019-02-27T09:46:40.984Z,28.80
2019-02-27T09:49:12.072Z,27.40
2019-02-27T09:51:42.735Z,26.20
2019-02-27T09:54:14.014Z,25.80
2019-02-27T09:56:44.639Z,24.70
2019-02-27T09:59:16.768Z,24.30
2019-02-27T10:01:47.873Z,23.90
2019-02-27T10:04:18.422Z,23.40
2019-02-27T10:06:49.110Z,23.00
2019-02-27T10:09:20.936Z,22.80
2019-02-27T10:11:52.335Z,22.30
2019-02-27T10:14:23.263Z,22.10
2019-02-27T10:16:54.474Z,22.10
2019-02-27T10:19:26.887Z,22.60
2019-02-27T10:21:58.166Z,22.50
2019-02-27T10:24:32.230Z,21.60
2019-02-27T10:27:03.222Z,22.00
2019-02-27T10:29:33.899Z,22.30
2019-02-27T10:32:04.634Z,22.20
2019-02-27T10:34:36.250Z,22.50
2019-02-27T10:37:12.894Z,22.70
2019-02-27T10:39:40.579Z,23.50
2019-02-27T10:42:11.427Z,24.10
2019-02-27T10:44:42.530Z,25.20
2019-02-27T10:47:13.248Z,25.40
2019-02-27T10:49:43.918Z,25.90
2019-02-27T10:52:14.670Z,25.10
2019-02-27T10:54:45.311Z,25.00
2019-02-27T10:57:16.166Z,24.60
2019-02-27T10:59:47.038Z,24.50
2019-02-27T11:02:17.941Z,25.20
2019-02-27T11:04:50.116Z,25.20
2019-02-27T11:07:22.138Z,26.60
2019-02-27T11:09:52.791Z,27.80
2019-02-27T11:12:26.891Z,28.60
2019-02-27T11:14:57.505Z,30.30
2019-02-27T11:17:28.338Z,30.90
2019-02-27T11:19:58.900Z,32.40
2019-02-27T11:22:32.328Z,33.20
2019-02-27T11:25:03.643Z,34.50
2019-02-27T11:27:38.451Z,35.50
2019-02-27T11:30:08.903Z,36.10
2019-02-27T11:32:39.431Z,36.90
2019-02-27T11:35:11.856Z,37.40
2019-02-27T11:37:44.340Z,38.10
2019-02-27T11:40:17.585Z,38.40
2019-02-27T11:42:48.627Z,39.10
2019-02-27T11:45:23.714Z,39.50
2019-02-27T11:47:53.084Z,39.80
2019-02-27T11:50:24.033Z,40.40
2019-02-27T11:52:55.866Z,41.20
2019-02-27T11:55:26.602Z,41.30
2019-02-27T11:57:57.317Z,41.90
2019-02-27T12:00:29.838Z,42.40
2019-02-27T12:03:00.850Z,42.90
2019-02-27T12:05:34.261Z,43.20
2019-02-27T12:08:05.741Z,43.90
2019-02-27T12:10:36.535Z,44.30
2019-02-27T12:13:07.253Z,44.50
2019-02-27T12:15:37.895Z,44.80
2019-02-27T12:18:08.924Z,45.00
2019-02-27T12:20:39.548Z,45.20
2019-02-27T12:23:10.850Z,45.50
2019-02-27T12:25:41.862Z,45.80
2019-02-27T12:28:15.189Z,46.00
2019-02-27T12:30:45.780Z,46.40
2019-02-27T12:33:16.918Z,46.70
2019-02-27T12:35:47.687Z,47.00
2019-02-27T12:38:18.426Z,46.40
2019-02-27T12:40:49.535Z,47.10
2019-02-27T12:43:20.138Z,47.40
2019-02-27T12:45:50.818Z,47.40
2019-02-27T12:48:21.569Z,47.60
2019-02-27T12:50:52.670Z,47.70
2019-02-27T12:53:23.775Z,48.00
2019-02-27T12:55:54.282Z,48.10
2019-02-27T12:58:25.281Z,48.60
2019-02-27T13:00:56.266Z,48.50
2019-02-27T13:03:27.402Z,48.90
2019-02-27T13:05:58.173Z,49.20
2019-02-27T13:08:30.398Z,49.50
2019-02-27T13:11:01.140Z,49.70
2019-02-27T13:13:32.394Z,50.10
2019-02-27T13:16:03.132Z,50.10
2019-02-27T13:18:33.991Z,50.90
2019-02-27T13:21:04.829Z,50.70
2019-02-27T13:23:36.332Z,51.20
2019-02-27T13:26:08.002Z,51.00
2019-02-27T13:28:39.218Z,51.70
2019-02-27T13:31:10.117Z,52.00
2019-02-27T13:33:40.927Z,51.90
2019-02-27T13:36:12.781Z,51.80
2019-02-27T13:38:45.344Z,51.80
2019-02-27T13:41:17.021Z,52.30
2019-02-27T13:43:47.551Z,52.50
2019-02-27T13:46:20.204Z,52.30
2019-02-27T13:48:51.162Z,52.60
2019-02-27T13:51:21.940Z,52.50
2019-02-27T13:53:52.758Z,52.60
2019-02-27T13:56:25.165Z,53.40
2019-02-27T13:58:55.952Z,52.90
2019-02-27T14:01:28.484Z,53.20
2019-02-27T14:03:58.683Z,53.10
2019-02-27T14:06:29.414Z,53.00
2019-02-27T14:09:04.414Z,53.40
2019-02-27T14:11:35.664Z,53.40
2019-02-27T14:14:06.517Z,53.80
2019-02-27T14:16:37.656Z,53.70
2019-02-27T14:19:08.492Z,53.70
2019-02-27T14:21:39.722Z,54.10
2019-02-27T14:24:11.014Z,53.70
2019-02-27T14:26:42.163Z,53.70
2019-02-27T14:29:12.763Z,53.80
2019-02-27T14:31:44.095Z,53.80
2019-02-27T14:34:15.567Z,53.90
2019-02-27T14:36:46.239Z,53.90
2019-02-27T14:39:16.793Z,54.10
2019-02-27T14:41:51.204Z,54.30
2019-02-27T14:44:21.498Z,54.10
2019-02-27T14:46:52.386Z,54.40
2019-02-27T14:49:23.874Z,54.30
2019-02-27T14:51:55.650Z,54.70
2019-02-27T14:54:29.268Z,54.50
2019-02-27T14:56:59.448Z,54.50
2019-02-27T14:59:31.380Z,54.70
2019-02-27T15:02:02.726Z,54.70
2019-02-27T15:04:33.429Z,54.70
2019-02-27T15:07:04.361Z,54.90
2019-02-27T15:09:36.443Z,54.90
2019-02-27T15:12:07.859Z,55.00
2019-02-27T15:14:39.003Z,55.00
2019-02-27T15:17:09.716Z,55.10
2019-02-27T15:19:42.118Z,55.10
2019-02-27T15:22:12.928Z,55.20
2019-02-27T15:24:43.559Z,55.30
2019-02-27T15:27:14.939Z,55.30
2019-02-27T15:29:45.539Z,55.40
2019-02-27T15:32:16.277Z,55.50
2019-02-27T15:34:50.480Z,55.50
2019-02-27T15:37:22.620Z,55.60
2019-02-27T15:39:55.050Z,55.60
2019-02-27T15:42:26.100Z,55.60
2019-02-27T15:44:56.900Z,55.80
2019-02-27T15:47:30.396Z,55.90
2019-02-27T15:49:59.854Z,56.00
2019-02-27T15:52:30.698Z,55.90
2019-02-27T15:55:01.491Z,56.00
2019-02-27T15:57:32.444Z,56.00
2019-02-27T16:00:03.319Z,56.00
2019-02-27T16:02:36.750Z,56.10
2019-02-27T16:05:08.821Z,56.10
2019-02-27T16:07:40.315Z,56.20
2019-02-27T16:10:13.406Z,56.40
2019-02-27T16:12:44.158Z,56.30
2019-02-27T16:15:16.968Z,56.40
2019-02-27T16:17:48.177Z,56.30
2019-02-27T16:20:19.695Z,56.30
2019-02-27T16:22:50.398Z,56.30
2019-02-27T16:25:22.231Z,56.40
2019-02-27T16:27:54.100Z,56.40
2019-02-27T16:30:31.063Z,56.40
2019-02-27T16:32:58.845Z,56.50
2019-02-27T16:35:29.630Z,56.60
2019-02-27T16:38:00.368Z,56.40
2019-02-27T16:40:30.994Z,56.60
2019-02-27T16:43:01.839Z,56.50
2019-02-27T16:45:33.990Z,56.50
2019-02-27T16:48:04.596Z,56.60
2019-02-27T16:50:35.583Z,56.50
2019-02-27T16:53:07.370Z,56.50
2019-02-27T16:55:40.024Z,56.50
2019-02-27T16:58:11.160Z,56.50
2019-02-27T17:00:42.794Z,56.50
2019-02-27T17:03:13.962Z,56.30
2019-02-27T17:05:44.907Z,56.40
2019-02-27T17:08:15.774Z,56.20
2019-02-27T17:10:51.738Z,56.00
2019-02-27T17:13:19.187Z,56.00
2019-02-27T17:15:50.389Z,56.10
2019-02-27T17:18:28.063Z,56.00
2019-02-27T17:20:59.339Z,55.90
2019-02-27T17:23:34.792Z,55.80
2019-02-27T17:26:07.437Z,55.70
2019-02-27T17:28:44.740Z,55.70
2019-02-27T17:31:15.691Z,55.60
2019-02-27T17:33:46.342Z,55.60
2019-02-27T17:36:20.335Z,55.50
2019-02-27T17:38:51.792Z,55.40
2019-02-27T17:41:31.271Z,55.00
2019-02-27T17:44:04.964Z,55.00
2019-02-27T17:46:35.232Z,55.00
2019-02-27T17:49:07.331Z,55.10
2019-02-27T17:51:40.450Z,55.00
2019-02-27T17:54:12.719Z,54.60
2019-02-27T17:56:43.206Z,54.80
2019-02-27T17:59:13.953Z,54.60
2019-02-27T18:01:44.574Z,54.60
2019-02-27T18:04:15.683Z,54.40
2019-02-27T18:06:46.468Z,54.50
2019-02-27T18:09:16.998Z,54.30
2019-02-27T18:11:49.473Z,54.30
2019-02-27T18:14:20.314Z,54.10
2019-02-27T18:16:51.402Z,54.20
2019-02-27T18:19:22.114Z,53.90
2019-02-27T18:21:52.642Z,54.20
2019-02-27T18:24:23.299Z,54.00
2019-02-27T18:26:54.484Z,53.80
2019-02-27T18:29:25.226Z,53.70
2019-02-27T18:31:58.724Z,53.80
2019-02-27T18:34:29.378Z,53.40
2019-02-27T18:37:00.383Z,53.60
2019-02-27T18:39:36.320Z,53.50
2019-02-27T18:42:05.151Z,53.50
2019-02-27T18:44:38.321Z,53.30
2019-02-27T18:47:08.166Z,53.20
2019-02-27T18:49:39.001Z,53.40
2019-02-27T18:52:10.027Z,53.30
2019-02-27T18:54:40.705Z,53.50
2019-02-27T18:57:13.582Z,53.50
2019-02-27T18:59:44.550Z,53.40
2019-02-27T19:02:19.692Z,53.30
2019-02-27T19:04:47.771Z,52.90
2019-02-27T19:07:20.216Z,53.30
2019-02-27T19:09:51.514Z,53.10
2019-02-27T19:12:28.432Z,52.90
2019-02-27T19:14:59.616Z,52.70
2019-02-27T19:17:32.551Z,53.10
2019-02-27T19:20:04.730Z,52.80
2019-02-27T19:22:35.548Z,53.00
2019-02-27T19:25:06.390Z,52.70
2019-02-27T19:27:37.653Z,52.70
2019-02-27T19:30:10.562Z,52.80
2019-02-27T19:32:41.441Z,52.80
2019-02-27T19:35:12.648Z,52.70
2019-02-27T19:37:43.659Z,52.70
2019-02-27T19:40:17.854Z,52.60
2019-02-27T19:42:54.558Z,52.60
2019-02-27T19:45:26.911Z,52.40
2019-02-27T19:47:57.818Z,52.30
2019-02-27T19:50:28.762Z,52.30
2019-02-27T19:53:05.149Z,52.30
2019-02-27T19:55:33.053Z,52.20
2019-02-27T19:58:03.943Z,52.80
2019-02-27T20:00:35.653Z,52.10
2019-02-27T20:03:08.394Z,52.20
2019-02-27T20:05:40.559Z,52.30
2019-02-27T20:08:11.606Z,52.40
2019-02-27T20:10:44.174Z,52.10
2019-02-27T20:13:15.638Z,52.40
2019-02-27T20:15:46.589Z,52.60
2019-02-27T20:18:17.551Z,53.20
2019-02-27T20:20:48.050Z,53.20
2019-02-27T20:23:29.493Z,53.00
2019-02-27T20:26:01.291Z,52.90
2019-02-27T20:28:33.146Z,52.90
2019-02-27T20:31:05.656Z,52.80
2019-02-27T20:33:37.188Z,52.90
2019-02-27T20:36:08.968Z,52.80
2019-02-27T20:38:41.706Z,53.00
2019-02-27T20:41:12.697Z,52.80
2019-02-27T20:43:43.304Z,52.90
2019-02-27T20:46:14.687Z,53.10
2019-02-27T20:48:47.474Z,52.90
2019-02-27T20:51:18.163Z,53.00
2019-02-27T20:53:55.112Z,53.10
2019-02-27T20:56:22.974Z,53.20
2019-02-27T20:58:53.881Z,53.30
2019-02-27T21:01:25.100Z,53.10
2019-02-27T21:04:01.424Z,53.40
2019-02-27T21:06:28.722Z,53.10
2019-02-27T21:08:59.740Z,53.20
2019-02-27T21:11:31.599Z,53.30
2019-02-27T21:14:02.639Z,53.40
2019-02-27T21:16:34.491Z,53.50
2019-02-27T21:19:05.683Z,53.30
2019-02-27T21:21:36.345Z,53.20
2019-02-27T21:24:07.069Z,53.20
2019-02-27T21:26:37.623Z,53.10
2019-02-27T21:29:09.897Z,52.80
2019-02-27T21:31:40.659Z,52.90
2019-02-27T21:34:12.711Z,52.80
2019-02-27T21:36:43.826Z,53.20
2019-02-27T21:39:14.786Z,53.20
2019-02-27T21:41:46.242Z,52.80
2019-02-27T21:44:25.229Z,53.20
2019-02-27T21:46:49.056Z,52.90
2019-02-27T21:49:20.198Z,52.80
2019-02-27T21:51:50.866Z,52.80
2019-02-27T21:54:21.696Z,52.80
2019-02-27T21:56:52.567Z,52.90
2019-02-27T21:59:23.625Z,52.80
2019-02-27T22:01:56.236Z,52.80
2019-02-27T22:04:27.415Z,52.80
2019-02-27T22:06:59.561Z,52.90
2019-02-27T22:09:31.415Z,52.50
2019-02-27T22:12:03.046Z,52.80
2019-02-27T22:14:33.858Z,52.60
2019-02-27T22:17:05.945Z,52.60
2019-02-27T22:19:36.863Z,52.80
2019-02-27T22:22:08.891Z,52.60
2019-02-27T22:24:40.487Z,52.60
2019-02-27T22:27:12.732Z,52.60
2019-02-27T22:29:43.652Z,53.00
2019-02-27T22:32:15.655Z,52.60
2019-02-27T22:34:46.351Z,52.60
2019-02-27T22:37:18.412Z,52.60
2019-02-27T22:39:49.462Z,52.60
2019-02-27T22:42:20.195Z,52.50
2019-02-27T22:44:51.420Z,52.40
2019-02-27T22:47:22.643Z,52.30
2019-02-27T22:49:53.150Z,52.40
2019-02-27T22:52:24.182Z,52.10
2019-02-27T22:54:54.890Z,52.20
2019-02-27T22:57:26.138Z,52.10
2019-02-27T22:59:57.055Z,51.90
2019-02-27T23:02:28.124Z,52.10
2019-02-27T23:05:01.366Z,52.00
2019-02-27T23:07:31.766Z,52.10
2019-02-27T23:10:02.392Z,52.10
2019-02-27T23:12:33.971Z,52.10
2019-02-27T23:15:05.764Z,52.10
2019-02-27T23:17:36.624Z,52.30
2019-02-27T23:20:07.751Z,52.30
2019-02-27T23:22:38.602Z,52.30
2019-02-27T23:25:09.662Z,52.10
2019-02-27T23:27:40.634Z,52.20
2019-02-27T23:30:15.843Z,52.10
2019-02-27T23:32:43.886Z,52.30
2019-02-27T23:35:16.724Z,52.00
2019-02-27T23:37:47.422Z,52.00
2019-02-27T23:40:18.161Z,51.90
2019-02-27T23:42:49.075Z,51.80
2019-02-27T23:45:20.111Z,52.00
2019-02-27T23:47:50.866Z,52.00
2019-02-27T23:50:21.562Z,51.90
2019-02-27T23:52:53.231Z,52.00
2019-02-27T23:55:24.456Z,52.10
2019-02-27T23:57:57.770Z,52.30
